Astoria, OR

8:27 AM PDT on April 28, 2015 (GMT -0700)
The Slope of South | | Change Station
CLOSE
Current Station
Personal Weather Station
Location: Astoria, OR
Elevation: 213 ft
Nearby Weather Stations

Elev 213 ft 46.18 °N, 123.84 °W | Updated 54 minutes ago

Overcast
Overcast
51.8 °F
Feels Like 51.8 °F
N
2.2
Wind Variable Wind from SW

Today
High -- | Low -- °F
--% Chance of Precip.
Yesterday
High -- | Low -- °F
Precip. -- in
6:06 AM 8:19 PM
Waxing Gibbous, 74% visible
Pressure 30.11 in
Visibility 1.5 miles
Clouds Mostly Cloudy 400 ft
Mostly Cloudy 900 ft
Overcast 1300 ft
Dew Point 48 °F
Humidity 88%
Rainfall 0.00 in
Snow Depth Not available.
UV 1 out of 12
Pollen 8.60 out of 12
Air Quality Not available.
Flu Activity Sporadic
SPECI KAST 281521Z AUTO 31010KT 1 1/2SM -RA BR BKN004 BKN009 OVC013 11/10 A3011 RMK AO2 RAB01 P0002 T01110100

More Conditions Fewer Conditions

Pressure 30.11 in
Visibility 1.5 miles
Clouds Mostly Cloudy 400 ft
Mostly Cloudy 900 ft
Overcast 1300 ft
Dew Point 48 °F
Humidity 88%
Rainfall 0.00 in
Snow Depth Not available.
UV 1 out of 12
Pollen 8.60 out of 12
Air Quality Not available.
Flu Activity Sporadic
SPECI KAST 281521Z AUTO 31010KT 1 1/2SM -RA BR BKN004 BKN009 OVC013 11/10 A3011 RMK AO2 RAB01 P0002 T01110100

More Conditions Fewer Conditions

10-Day Weather Forecast

Almanac

Astronomy

Apr. 28, 2015 Rise Set
Actual Time
Civil Twilight
Nautical Twilight
Astronomical Twilight
Moon
Length of Visible Light
Length of Day
Tomorrow will be .
, % of the Moon is Illuminated

Today's Extremes

State Highs State Lows

Community

WunderPhotos

Upload Photos

1,817,661 photos uploaded!

WunderBlogs® & News

Nearby

Air Quality

  Air Quality AQ Index Pollutant
Not available.

Snow Depth

Station Depth Elevation

Earthquake Activity

City Distance Mag. Time & Date
Minimum magnitude displayed is 2.5.

Coastal Water Temperatures

Place Temperature

Stations

Nearby Weather Stations

Station Location Temp. Windchill Dew Point Humidity Wind Precip. Elev Updated Type